Time;durP1;ratioP1;P1;durP2;ratioP2;P2;SDS_P1;SDS_P2;PMS_P1;PMS_P2;Temp;Humidity;BMP_temperature;BMP_pressure;BME280_temperature;BME280_humidity;BME280_pressure;Samples;Min_cycle;Max_cycle;Signal;HPM_P1;HPM_P2
2022/06/08 00:03:58;;;;;;;5.50;3.50;;;;;;;25.48;40.65;100271.83;103675;1327;74919;-88
2022/06/08 00:06:24;;;;;;;5.70;3.60;;;;;;;25.49;40.79;100269.02;103741;1327;67874;-88
2022/06/08 00:08:49;;;;;;;4.60;3.60;;;;;;;25.49;40.75;100268.72;103584;1328;67762;-88
2022/06/08 00:11:15;;;;;;;7.20;3.60;;;;;;;25.47;40.91;100267.56;103572;1328;68043;-88
2022/06/08 00:13:42;;;;;;;4.20;3.00;;;;;;;25.46;40.72;100272.11;103569;1328;67750;-88
2022/06/08 00:18:48;;;;;;;7.30;3.50;;;;;;;25.48;40.96;100274.86;103662;1328;83479;-88
2022/06/08 00:21:14;;;;;;;9.40;3.80;;;;;;;25.48;40.94;100273.53;103707;1327;67781;-88
2022/06/08 00:23:39;;;;;;;6.00;3.70;;;;;;;25.47;40.91;100270.05;103718;1327;67002;-88
2022/06/08 00:26:05;;;;;;;9.60;3.80;;;;;;;25.48;40.95;100263.75;103630;1328;67049;-88
2022/06/08 00:28:31;;;;;;;5.90;3.60;;;;;;;25.46;40.87;100260.22;103597;1328;67069;-88
2022/06/08 00:30:57;;;;;;;7.40;3.60;;;;;;;25.49;40.77;100254.81;103655;1327;67743;-89
2022/06/08 00:33:23;;;;;;;5.30;3.50;;;;;;;25.48;40.78;100253.70;103708;1327;67272;-88
2022/06/08 00:35:49;;;;;;;6.40;3.90;;;;;;;25.48;40.76;100253.70;103649;1328;67729;-88
2022/06/08 00:38:14;;;;;;;7.20;3.80;;;;;;;25.46;40.77;100257.45;103654;1328;67132;-88
2022/06/08 00:41:01;;;;;;;5.20;3.90;;;;;;;25.44;40.92;100257.13;103697;1327;67745;-88
2022/06/08 00:43:26;;;;;;;7.80;3.90;;;;;;;25.46;40.87;100253.52;103713;1327;66929;-89
2022/06/08 00:45:52;;;;;;;5.20;3.70;;;;;;;25.47;40.86;100247.58;103704;1327;67669;-88
2022/06/08 00:48:18;;;;;;;5.80;4.00;;;;;;;25.46;40.85;100246.35;103294;1327;557946;-88
2022/06/08 00:50:45;;;;;;;5.20;4.10;;;;;;;25.46;40.95;100240.50;103605;1328;67764;-88
2022/06/08 00:53:12;;;;;;;6.40;3.80;;;;;;;25.44;40.97;100240.55;103567;1328;67158;-88
2022/06/08 00:55:38;;;;;;;4.80;3.90;;;;;;;25.45;41.00;100238.63;103602;1328;67060;-88
2022/06/08 00:58:26;;;;;;;7.20;3.80;;;;;;;25.45;41.00;100243.13;103629;1328;67580;-92
2022/06/08 01:00:52;;;;;;;8.00;3.60;;;;;;;25.44;41.02;100237.27;103575;1328;67767;-88
2022/06/08 01:03:18;;;;;;;6.60;3.90;;;;;;;25.42;41.09;100239.39;103601;1328;67163;-88
2022/06/08 01:05:59;;;;;;;7.00;3.70;;;;;;;25.42;41.02;100234.73;103684;1328;67699;-88
2022/06/08 01:08:38;;;;;;;4.70;3.60;;;;;;;25.46;41.06;100235.52;103669;1328;72941;-88
2022/06/08 01:11:07;;;;;;;6.70;3.60;;;;;;;25.44;41.05;100232.64;103693;1328;67648;-88
2022/06/08 01:13:33;;;;;;;5.50;3.80;;;;;;;25.43;41.18;100234.59;103650;1328;67708;-88
2022/06/08 01:16:08;;;;;;;8.20;4.10;;;;;;;25.42;41.19;100232.69;103662;1328;67618;-92
2022/06/08 01:18:34;;;;;;;4.60;3.70;;;;;;;25.42;41.27;100230.93;103667;1328;75725;-88
2022/06/08 01:21:21;;;;;;;5.70;3.60;;;;;;;25.43;41.23;100229.15;103655;1328;67765;-88
2022/06/08 01:26:35;;;;;;;7.20;3.70;;;;;;;25.41;41.39;100216.42;103740;1318;67123;-88
2022/06/08 01:29:09;;;;;;;7.30;3.30;;;;;;;25.39;41.42;100217.88;103746;1326;75687;-88
2022/06/08 01:31:46;;;;;;;5.90;3.60;;;;;;;25.37;41.44;100210.63;103756;1328;74364;-87
2022/06/08 01:34:16;;;;;;;4.50;3.60;;;;;;;25.39;41.58;100212.86;103712;1327;67679;-90
2022/06/08 01:39:44;;;;;;;5.70;3.30;;;;;;;25.38;41.57;100215.61;103642;1327;67738;-89
2022/06/08 01:42:10;;;;;;;8.60;3.90;;;;;;;25.36;41.61;100212.41;103746;1327;67675;-89
2022/06/08 01:45:28;;;;;;;4.90;3.70;;;;;;;25.39;41.74;100212.24;103712;1327;67580;-89
2022/06/08 01:47:31;;;;;;;8.50;3.50;;;;;;;25.40;41.66;100220.01;103737;1317;67963;-88
2022/06/08 01:50:03;;;;;;;6.70;3.40;;;;;;;25.37;41.69;100216.30;103534;1328;67705;-89
2022/06/08 01:52:50;;;;;;;6.20;3.40;;;;;;;25.37;41.89;100221.59;103631;1328;68171;-89
2022/06/08 01:55:46;;;;;;;8.50;3.70;;;;;;;25.37;41.83;100218.42;103756;1327;67663;-89
2022/06/08 01:58:17;;;;;;;6.30;3.70;;;;;;;25.38;41.93;100215.88;103726;1327;74420;-89
2022/06/08 02:03:34;;;;;;;5.60;3.80;;;;;;;25.37;42.10;100222.44;103701;1315;67195;-87
2022/06/08 02:06:07;;;;;;;7.00;3.70;;;;;;;25.38;42.23;100223.77;103592;1327;67755;-89
2022/06/08 02:08:47;;;;;;;4.30;3.60;;;;;;;25.39;42.17;100222.70;103679;1328;67546;-89
2022/06/08 02:11:27;;;;;;;6.80;3.80;;;;;;;25.38;42.31;100227.98;103629;1328;74550;-89
2022/06/08 02:14:14;;;;;;;7.00;4.00;;;;;;;25.34;42.23;100226.67;103578;1327;67730;-89
2022/06/08 02:16:44;;;;;;;6.20;4.10;;;;;;;25.32;42.39;100229.42;103573;1327;67847;-89
2022/06/08 02:19:16;;;;;;;5.00;3.60;;;;;;;25.31;42.44;100233.15;103670;1328;67897;-88
2022/06/08 02:24:36;;;;;;;6.80;3.30;;;;;;;25.29;42.68;100227.09;103659;1327;83658;-89
2022/06/08 02:27:11;;;;;;;6.60;3.50;;;;;;;25.27;42.73;100224.50;103635;1328;67775;-89
2022/06/08 02:29:51;;;;;;;5.70;3.40;;;;;;;25.26;42.79;100224.02;103762;1327;67336;-88
2022/06/08 02:35:11;;;;;;;4.80;3.90;;;;;;;25.27;42.89;100226.20;103719;1328;67700;-89
2022/06/08 02:37:37;;;;;;;4.50;3.50;;;;;;;25.28;42.86;100230.03;103738;1328;74762;-89
2022/06/08 02:40:16;;;;;;;6.70;3.70;;;;;;;25.32;42.96;100225.69;103707;1327;67841;-89
2022/06/08 02:42:43;;;;;;;6.70;4.00;;;;;;;25.34;43.04;100223.79;103720;1327;67639;-90
2022/06/08 02:45:13;;;;;;;7.20;4.20;;;;;;;25.34;42.88;100224.20;103685;1328;67081;-89
2022/06/08 02:47:39;;;;;;;10.70;4.20;;;;;;;25.32;42.96;100221.23;103662;1328;67722;-89
2022/06/08 02:52:49;;;;;;;5.80;3.80;;;;;;;25.33;42.98;100221.06;103649;1327;72652;-89
2022/06/08 02:58:12;;;;;;;19.70;15.90;;;;;;;25.25;43.05;100234.38;103707;1326;67747;-88
2022/06/08 03:00:42;;;;;;;23.60;21.10;;;;;;;25.13;43.06;100231.44;103723;1327;67588;-92
2022/06/08 03:03:15;;;;;;;9.90;8.20;;;;;;;25.06;42.97;100226.44;103723;1328;75290;-89
2022/06/08 03:08:30;;;;;;;12.80;7.50;;;;;;;24.87;43.41;100224.05;103660;1327;67748;-89
2022/06/08 03:10:55;;;;;;;7.70;6.00;;;;;;;24.77;43.49;100235.21;103689;1328;67742;-89
2022/06/08 03:13:29;;;;;;;8.50;5.40;;;;;;;24.71;43.68;100227.33;103678;1327;67220;-89
2022/06/08 03:18:40;;;;;;;10.20;5.10;;;;;;;24.74;43.80;100234.40;103688;1327;73006;-92
2022/06/08 03:21:06;;;;;;;9.30;5.00;;;;;;;24.76;43.79;100237.30;103703;1327;67711;-88
2022/06/08 03:23:32;;;;;;;10.90;4.70;;;;;;;24.74;43.84;100237.98;103750;1327;67714;-88
2022/06/08 03:25:57;;;;;;;17.40;6.10;;;;;;;24.72;43.86;100235.39;103789;1328;67077;-89
2022/06/08 03:28:23;;;;;;;12.50;5.50;;;;;;;24.70;44.06;100244.06;103723;1328;67899;-89
2022/06/08 03:30:49;;;;;;;10.90;5.30;;;;;;;24.67;44.36;100247.36;103722;1328;67266;-89
2022/06/08 03:33:14;;;;;;;10.20;4.90;;;;;;;24.62;44.37;100255.21;103785;1327;67736;-89
2022/06/08 03:35:40;;;;;;;12.00;5.30;;;;;;;24.56;44.57;100259.65;103737;1328;66988;-89
2022/06/08 03:38:05;;;;;;;9.70;5.00;;;;;;;24.51;44.60;100262.34;103731;1328;67790;-89
2022/06/08 03:40:31;;;;;;;8.20;4.70;;;;;;;24.47;44.68;100261.35;103755;1328;67468;-89
2022/06/08 03:42:57;;;;;;;9.20;4.70;;;;;;;24.46;44.83;100255.77;103734;1327;67055;-90
2022/06/08 03:48:07;;;;;;;10.70;5.10;;;;;;;24.44;44.62;100245.40;103720;1327;75612;-89
2022/06/08 03:50:33;;;;;;;12.00;5.00;;;;;;;24.38;44.78;100244.02;103652;1328;67607;-89
2022/06/08 03:53:00;;;;;;;7.40;5.20;;;;;;;24.32;44.79;100245.21;103749;1327;67530;-88
2022/06/08 03:55:26;;;;;;;9.60;5.10;;;;;;;24.26;44.91;100241.23;103731;1327;67780;-89
2022/06/08 03:57:52;;;;;;;10.70;5.60;;;;;;;24.26;44.87;100250.67;103861;1328;66994;-90
2022/06/08 04:02:54;;;;;;;9.20;4.60;;;;;;;24.20;45.14;100263.73;103811;1318;81657;-89
2022/06/08 04:05:20;;;;;;;12.10;4.80;;;;;;;24.15;45.19;100265.55;103848;1326;67107;-89
2022/06/08 04:07:46;;;;;;;6.30;4.30;;;;;;;24.15;45.41;100271.70;103783;1327;67275;-90
2022/06/08 04:10:12;;;;;;;10.50;4.70;;;;;;;24.19;45.29;100273.27;103852;1328;67019;-90
2022/06/08 04:12:38;;;;;;;7.40;4.60;;;;;;;24.26;45.37;100274.83;103755;1327;67587;-90
2022/06/08 04:15:04;;;;;;;9.20;4.70;;;;;;;24.29;45.23;100278.89;103644;1328;67730;-89
2022/06/08 04:17:29;;;;;;;11.90;4.90;;;;;;;24.32;45.30;100282.92;103743;1327;68454;-89
2022/06/08 04:19:55;;;;;;;8.40;4.30;;;;;;;24.30;45.39;100278.93;103714;1327;67018;-88
2022/06/08 04:22:21;;;;;;;7.60;4.30;;;;;;;24.28;45.35;100277.52;103736;1326;67781;-88
2022/06/08 04:24:47;;;;;;;7.90;4.30;;;;;;;24.31;45.33;100279.42;103725;1327;67639;-89
2022/06/08 04:29:51;;;;;;;8.90;5.10;;;;;;;24.33;45.42;100278.06;103669;1324;67669;-89
2022/06/08 04:32:17;;;;;;;10.60;5.10;;;;;;;24.31;45.31;100273.94;103644;1328;67862;-89
2022/06/08 04:34:43;;;;;;;8.40;4.50;;;;;;;24.26;45.31;100275.66;103898;1327;67145;-89
2022/06/08 04:37:08;;;;;;;12.40;4.30;;;;;;;24.25;45.35;100285.55;103846;1327;67064;-89
2022/06/08 04:39:34;;;;;;;6.70;4.30;;;;;;;24.27;45.62;100288.80;103786;1328;67170;-90
2022/06/08 04:41:59;;;;;;;6.10;4.20;;;;;;;24.28;45.41;100281.43;103800;1327;67143;-89
2022/06/08 04:44:25;;;;;;;10.40;4.40;;;;;;;24.30;45.47;100283.13;103597;1327;67727;-89
2022/06/08 04:46:50;;;;;;;6.70;4.00;;;;;;;24.29;45.44;100277.05;103645;1328;67580;-89
2022/06/08 04:49:16;;;;;;;7.90;4.20;;;;;;;24.28;45.44;100277.27;103545;1328;67697;-89
2022/06/08 04:51:46;;;;;;;7.50;4.30;;;;;;;24.28;45.57;100280.14;103622;1327;67741;-90
2022/06/08 04:57:00;;;;;;;6.90;4.50;;;;;;;24.21;45.53;100286.42;103748;1318;76148;-91
2022/06/08 05:08:53;;;;;;;9.20;5.20;;;;;;;24.01;45.94;100291.78;103092;1318;67701;-89
2022/06/08 05:11:40;;;;;;;13.50;6.00;;;;;;;23.95;46.01;100289.27;103847;1318;75113;-88
2022/06/08 05:14:06;;;;;;;13.70;5.60;;;;;;;23.93;46.18;100291.72;103783;1327;67323;-88
2022/06/08 05:16:32;;;;;;;10.40;4.80;;;;;;;23.95;46.15;100295.56;103815;1328;67437;-87
2022/06/08 05:18:57;;;;;;;11.90;5.60;;;;;;;23.92;46.39;100293.70;103701;1328;67720;-88
2022/06/08 05:21:23;;;;;;;11.10;5.70;;;;;;;23.94;46.56;100302.35;103730;1327;67447;-86
2022/06/08 05:23:48;;;;;;;9.10;6.00;;;;;;;23.95;46.66;100294.98;103626;1328;75606;-86
2022/06/08 05:26:14;;;;;;;10.60;6.50;;;;;;;23.99;46.50;100289.96;103653;1327;67407;-86
2022/06/08 05:28:40;;;;;;;8.70;6.10;;;;;;;24.02;46.56;100292.48;103638;1327;67485;-86
2022/06/08 05:31:06;;;;;;;11.00;5.70;;;;;;;24.03;46.51;100292.46;103702;1328;68062;-87
2022/06/08 05:33:31;;;;;;;10.10;6.20;;;;;;;24.07;46.37;100304.17;103669;1327;67825;-87
2022/06/08 05:38:37;;;;;;;11.00;5.60;;;;;;;24.08;46.53;100316.45;103523;1322;198719;-87
2022/06/08 05:41:03;;;;;;;15.40;7.70;;;;;;;24.08;46.42;100313.16;103802;1326;67164;-87
2022/06/08 05:43:29;;;;;;;10.40;5.90;;;;;;;24.07;46.35;100315.39;103723;1327;67784;-86
2022/06/08 05:45:55;;;;;;;11.90;6.30;;;;;;;24.08;46.41;100315.58;103629;1327;67443;-87
2022/06/08 05:48:20;;;;;;;14.10;6.60;;;;;;;24.10;46.42;100311.95;103608;1327;67780;-87
2022/06/08 05:50:46;;;;;;;11.50;6.50;;;;;;;24.13;46.46;100311.02;103715;1325;67043;-87
2022/06/08 05:53:12;;;;;;;8.40;4.90;;;;;;;24.14;46.32;100307.31;103676;1328;67712;-86
2022/06/08 05:55:37;;;;;;;10.80;5.10;;;;;;;24.17;46.17;100305.16;103619;1328;67932;-86
2022/06/08 05:58:03;;;;;;;11.10;5.00;;;;;;;24.20;46.25;100304.70;103645;1327;67491;-87
2022/06/08 06:00:31;;;;;;;12.50;7.30;;;;;;;24.24;46.27;100308.39;103579;1328;67379;-86
2022/06/08 06:03:07;;;;;;;16.70;9.50;;;;;;;24.26;46.19;100311.48;103681;1327;67157;-92
2022/06/08 06:05:33;;;;;;;11.10;8.20;;;;;;;24.29;46.26;100317.58;103731;1327;67012;-87
2022/06/08 06:07:59;;;;;;;12.40;7.50;;;;;;;24.36;46.17;100318.20;103621;1328;67209;-87
2022/06/08 06:10:28;;;;;;;16.80;8.60;;;;;;;24.45;45.94;100318.73;103616;1327;67759;-86
2022/06/08 06:12:54;;;;;;;12.20;9.50;;;;;;;24.51;45.95;100313.29;103566;1328;67076;-87
2022/06/08 06:15:20;;;;;;;14.00;9.90;;;;;;;24.52;45.84;100307.92;103683;1328;67077;-88
2022/06/08 06:17:45;;;;;;;14.50;10.10;;;;;;;24.55;45.71;100306.90;103667;1327;67826;-88
2022/06/08 06:20:11;;;;;;;17.20;10.90;;;;;;;24.57;45.75;100312.05;103674;1327;67083;-86
2022/06/08 06:22:37;;;;;;;18.70;10.60;;;;;;;24.59;45.61;100317.15;103721;1327;67080;-87
2022/06/08 06:25:03;;;;;;;15.10;9.60;;;;;;;24.64;45.54;100314.62;103704;1328;67584;-87
2022/06/08 06:27:29;;;;;;;12.30;8.90;;;;;;;24.67;45.43;100316.25;103716;1328;67929;-88
2022/06/08 06:30:04;;;;;;;14.90;8.90;;;;;;;24.68;45.39;100322.09;103701;1328;67779;-92
2022/06/08 06:32:32;;;;;;;12.90;6.20;;;;;;;24.68;45.33;100318.18;103461;1328;67906;-86
2022/06/08 06:34:58;;;;;;;15.40;9.00;;;;;;;24.68;45.40;100308.10;103678;1327;67361;-86
2022/06/08 06:37:24;;;;;;;14.40;9.70;;;;;;;24.70;45.30;100314.46;103438;1328;67742;-87
2022/06/08 06:39:51;;;;;;;15.10;8.60;;;;;;;24.71;45.44;100309.70;103505;1328;67771;-87
2022/06/08 06:42:18;;;;;;;16.00;9.10;;;;;;;24.73;45.35;100306.69;103732;1326;67189;-88
2022/06/08 06:44:44;;;;;;;16.50;7.30;;;;;;;24.80;45.20;100309.85;103717;1327;67705;-88
2022/06/08 06:47:09;;;;;;;26.30;6.20;;;;;;;24.81;45.12;100302.49;103636;1327;67680;-86
2022/06/08 06:49:35;;;;;;;19.90;9.20;;;;;;;24.84;45.12;100304.09;103625;1328;67894;-86
2022/06/08 06:52:00;;;;;;;21.20;11.00;;;;;;;24.86;45.03;100300.30;103590;1328;67297;-86
2022/06/08 06:54:26;;;;;;;21.90;14.70;;;;;;;24.85;45.01;100296.90;103543;1328;67133;-86
2022/06/08 06:56:52;;;;;;;21.00;15.60;;;;;;;24.85;44.98;100293.61;103577;1328;67106;-86
2022/06/08 06:59:17;;;;;;;22.80;19.00;;;;;;;24.85;45.02;100292.16;103647;1327;67727;-86
2022/06/08 07:01:43;;;;;;;27.50;17.10;;;;;;;24.87;44.95;100288.16;103588;1328;68295;-86
2022/06/08 07:04:11;;;;;;;19.20;13.60;;;;;;;24.88;44.90;100288.87;103659;1328;67814;-88
2022/06/08 07:06:37;;;;;;;18.40;11.00;;;;;;;24.89;44.86;100288.13;103592;1328;67869;-86
2022/06/08 07:09:03;;;;;;;13.50;8.60;;;;;;;24.91;44.73;100283.20;103560;1328;67737;-87
2022/06/08 07:14:06;;;;;;;19.80;9.90;;;;;;;24.95;44.69;100287.56;103666;1318;67133;-88
2022/06/08 07:16:37;;;;;;;18.30;7.40;;;;;;;24.99;44.79;100283.42;103714;1327;73369;-88
2022/06/08 07:19:06;;;;;;;13.50;7.20;;;;;;;25.05;44.81;100288.41;103605;1328;73243;-87
2022/06/08 07:27:32;;;;;;;8.90;5.40;;;;;;;25.09;44.36;100292.69;103630;1328;73733;-91
2022/06/08 07:30:28;;;;;;;9.10;4.20;;;;;;;25.04;44.14;100290.77;103745;1319;83424;-91
2022/06/08 07:42:27;;;;;;;10.50;5.20;;;;;;;24.90;43.71;100283.95;103627;1318;73743;-90
2022/06/08 07:51:00;;;;;;;9.50;4.60;;;;;;;24.88;43.90;100286.71;103785;1319;67526;-88
2022/06/08 08:05:21;;;;;;;17.30;10.90;;;;;;;24.81;43.72;100279.99;103639;1319;67610;-89
2022/06/08 08:15:11;;;;;;;8.40;5.90;;;;;;;24.77;43.39;100272.48;90685;1318;195191;-88
2022/06/08 08:17:43;;;;;;;10.90;6.90;;;;;;;24.74;43.54;100270.73;103688;1328;72005;-89
2022/06/08 08:20:11;;;;;;;9.40;6.20;;;;;;;24.76;43.54;100273.11;103647;1328;67712;-88
2022/06/08 08:22:36;;;;;;;9.30;5.20;;;;;;;24.78;43.47;100273.85;103621;1328;67214;-88
2022/06/08 08:25:03;;;;;;;7.80;4.10;;;;;;;24.75;43.46;100272.64;103649;1328;68118;-88
2022/06/08 08:27:28;;;;;;;8.60;6.20;;;;;;;24.75;43.42;100268.54;103626;1328;67206;-88
2022/06/08 08:30:06;;;;;;;9.20;5.50;;;;;;;24.81;43.62;100264.88;103628;1319;72423;-86
2022/06/08 08:32:35;;;;;;;8.80;6.00;;;;;;;24.83;43.39;100263.91;103674;1328;67688;-91
2022/06/08 08:35:01;;;;;;;7.50;4.70;;;;;;;24.83;43.48;100258.15;103730;1328;67841;-88
2022/06/08 08:37:28;;;;;;;5.70;3.60;;;;;;;24.85;43.29;100261.96;103742;1327;67785;-88
2022/06/08 08:39:54;;;;;;;13.00;8.30;;;;;;;24.88;43.41;100260.25;103736;1328;83866;-88
2022/06/08 08:42:23;;;;;;;10.10;7.50;;;;;;;24.89;43.24;100259.21;103588;1327;73469;-87
2022/06/08 08:44:57;;;;;;;10.00;7.30;;;;;;;24.92;43.21;100264.31;103574;1328;67142;-87
2022/06/08 08:53:25;;;;;;;14.80;7.80;;;;;;;24.93;43.22;100260.73;102666;1327;82117;-87
2022/06/08 09:01:41;;;;;;;8.50;6.80;;;;;;;24.90;43.25;100259.15;103606;1318;199430;-88
2022/06/08 09:04:21;;;;;;;9.70;6.90;;;;;;;24.90;43.17;100257.70;103819;1327;67082;-88
2022/06/08 09:06:46;;;;;;;16.20;12.50;;;;;;;24.89;43.14;100260.23;103747;1328;74426;-87
2022/06/08 09:09:19;;;;;;;9.60;7.10;;;;;;;24.86;43.11;100257.06;103727;1327;67105;-87
2022/06/08 09:11:45;;;;;;;13.60;6.80;;;;;;;24.86;43.10;100253.15;103795;1327;67107;-88
2022/06/08 09:20:37;;;;;;;17.50;11.20;;;;;;;24.92;42.91;100258.13;103608;1327;83375;-87
2022/06/08 09:23:23;;;;;;;17.90;10.50;;;;;;;24.91;43.05;100250.90;103553;1328;67187;-86
2022/06/08 09:28:43;;;;;;;12.10;8.10;;;;;;;24.97;42.74;100251.95;103688;1318;67736;-88
2022/06/08 09:31:33;;;;;;;13.50;7.70;;;;;;;25.00;42.62;100249.42;103418;1328;68275;-88
2022/06/08 09:34:12;;;;;;;13.60;9.60;;;;;;;25.01;42.46;100244.16;103570;1328;73713;-88
2022/06/08 09:36:37;;;;;;;13.10;9.30;;;;;;;25.00;42.48;100239.39;103570;1328;67879;-88
2022/06/08 09:39:03;;;;;;;9.10;6.70;;;;;;;25.02;42.37;100236.06;103652;1327;67793;-88
2022/06/08 09:41:34;;;;;;;10.30;7.10;;;;;;;25.00;42.30;100239.39;103617;1328;67188;-88
2022/06/08 09:44:26;;;;;;;15.20;7.00;;;;;;;24.98;42.40;100234.84;103468;1328;68075;-87
2022/06/08 09:56:19;;;;;;;16.80;13.40;;;;;;;24.97;41.97;100225.51;103606;1328;67653;-86
2022/06/08 10:04:59;;;;;;;21.70;18.90;;;;;;;25.03;41.83;100216.36;103544;1318;192472;-86
2022/06/08 10:07:45;;;;;;;17.90;15.10;;;;;;;25.01;41.61;100213.89;103662;1328;67780;-84
2022/06/08 10:10:21;;;;;;;19.20;13.90;;;;;;;24.98;41.64;100210.80;103596;1327;67262;-88
2022/06/08 10:13:01;;;;;;;12.10;10.70;;;;;;;24.95;41.53;100205.16;103584;1328;74841;-87
2022/06/08 10:15:28;;;;;;;12.70;11.20;;;;;;;24.95;41.62;100198.88;103689;1327;75863;-88
2022/06/08 10:18:24;;;;;;;11.90;8.10;;;;;;;25.01;41.49;100197.63;103496;1331;67855;-87
2022/06/08 10:21:01;;;;;;;13.70;7.40;;;;;;;25.01;41.41;100189.65;103507;1328;68062;-87
2022/06/08 10:23:29;;;;;;;9.60;5.60;;;;;;;25.00;41.35;100185.23;103503;1327;67863;-88
2022/06/08 10:31:30;;;;;;;7.40;4.40;;;;;;;25.04;41.19;100176.70;103603;1318;74021;-85
2022/06/08 10:34:05;;;;;;;8.00;5.60;;;;;;;25.05;40.99;100179.48;103521;1327;67923;-86
2022/06/08 10:36:32;;;;;;;6.40;5.10;;;;;;;25.10;40.81;100174.73;103652;1328;67467;-86
2022/06/08 11:28:48;;;;;;;5.30;3.90;;;;;;;25.18;38.93;100116.68;103532;1328;67829;-85
2022/06/08 11:31:28;;;;;;;7.90;3.80;;;;;;;25.17;38.94;100111.91;103280;1328;67279;-87
2022/06/08 11:34:19;;;;;;;9.10;4.00;;;;;;;25.15;38.94;100108.88;103604;1328;67722;-91
2022/06/08 11:37:13;;;;;;;8.70;3.40;;;;;;;25.20;39.03;100111.23;103582;1327;75168;-91
2022/06/08 11:40:12;;;;;;;7.00;3.50;;;;;;;25.21;39.11;100112.30;103580;1328;67680;-86
2022/06/08 11:43:15;;;;;;;4.90;3.60;;;;;;;25.20;38.82;100116.93;103563;1328;68068;-86
2022/06/08 11:45:58;;;;;;;11.80;6.00;;;;;;;25.15;38.69;100120.56;103667;1328;68318;-89
2022/06/08 11:48:28;;;;;;;10.90;4.60;;;;;;;25.13;38.70;100123.85;103582;1328;67895;-86
2022/06/08 11:51:01;;;;;;;9.40;4.50;;;;;;;25.16;38.60;100123.41;103613;1328;74652;-86
2022/06/08 11:53:31;;;;;;;8.50;4.00;;;;;;;25.19;38.55;100128.27;103525;1328;67591;-86
2022/06/08 11:56:21;;;;;;;5.50;3.10;;;;;;;25.20;38.48;100122.40;103562;1328;67754;-86
2022/06/08 11:58:52;;;;;;;7.90;2.50;;;;;;;25.23;38.18;100122.44;103640;1329;67684;-86
2022/06/08 12:01:46;;;;;;;7.60;2.20;;;;;;;25.22;38.11;100123.08;103609;1327;75184;-86
2022/06/08 12:04:14;;;;;;;6.10;2.10;;;;;;;25.19;38.13;100119.79;103516;1328;74778;-86
2022/06/08 12:06:57;;;;;;;2.70;1.90;;;;;;;25.19;37.96;100122.54;103639;1328;67069;-90
2022/06/08 12:09:26;;;;;;;5.90;2.20;;;;;;;25.19;37.69;100126.43;103603;1327;67631;-85
2022/06/08 12:12:03;;;;;;;4.50;2.40;;;;;;;25.15;37.70;100119.33;103541;1328;66957;-86
2022/06/08 12:14:30;;;;;;;7.00;2.30;;;;;;;25.16;37.57;100117.48;103572;1328;67812;-86
2022/06/08 12:17:03;;;;;;;4.60;2.60;;;;;;;25.18;37.52;100116.42;103642;1327;68582;-86
2022/06/08 12:19:30;;;;;;;7.20;2.60;;;;;;;25.17;37.45;100111.50;103657;1327;67830;-86
2022/06/08 12:22:08;;;;;;;4.20;2.30;;;;;;;25.20;37.30;100119.13;103527;1328;67859;-86
2022/06/08 12:27:17;;;;;;;6.60;2.30;;;;;;;25.22;36.87;100117.83;103473;1328;74650;-85
2022/06/08 12:29:47;;;;;;;3.20;2.30;;;;;;;25.22;36.86;100116.91;103515;1331;74596;-86
2022/06/08 12:32:21;;;;;;;3.40;2.20;;;;;;;25.25;36.79;100114.07;103494;1331;73101;-85
2022/06/08 12:35:07;;;;;;;3.70;2.30;;;;;;;25.27;36.70;100111.04;103466;1331;67696;-85
2022/06/08 12:37:38;;;;;;;4.60;2.50;;;;;;;25.27;36.74;100108.49;103460;1331;68229;-85
2022/06/08 12:40:15;;;;;;;9.90;5.70;;;;;;;25.28;36.61;100101.52;103459;1330;67027;-86
2022/06/08 12:43:10;;;;;;;12.10;9.10;;;;;;;25.30;36.63;100098.95;103445;1330;75669;-91
2022/06/08 12:46:01;;;;;;;17.80;11.90;;;;;;;25.35;36.72;100099.81;103439;1330;67869;-90
2022/06/08 12:48:42;;;;;;;;;;;;;;;25.39;36.65;100106.01;103041;1331;484677;-87
2022/06/08 12:51:24;;;;;;;18.30;11.50;;;;;;;25.37;36.65;100097.35;103438;1330;67833;-85
2022/06/08 12:53:50;;;;;;;17.10;12.20;;;;;;;25.37;36.60;100098.02;103496;1329;66977;-85
2022/06/08 12:56:18;;;;;;;35.30;24.80;;;;;;;25.40;36.62;100097.63;103338;1330;67936;-87
2022/06/08 12:58:46;;;;;;;26.40;19.70;;;;;;;25.44;36.57;100098.80;103494;1329;67671;-85
2022/06/08 13:01:12;;;;;;;22.40;16.30;;;;;;;25.48;36.60;100098.80;103318;1331;67626;-86
2022/06/08 13:03:39;;;;;;;17.40;12.50;;;;;;;25.49;36.56;100098.10;103400;1330;67385;-87
2022/06/08 13:06:05;;;;;;;11.30;7.60;;;;;;;25.47;36.49;100094.02;103324;1330;67272;-86
2022/06/08 13:08:30;;;;;;;13.50;5.20;;;;;;;25.47;36.55;100095.84;103545;1330;67682;-86
2022/06/08 13:10:59;;;;;;;6.20;4.60;;;;;;;25.45;36.58;100090.79;103397;1330;67881;-86
2022/06/08 13:13:25;;;;;;;7.50;3.50;;;;;;;25.40;36.61;100087.13;103358;1331;67665;-86
2022/06/08 13:15:51;;;;;;;2.90;2.60;;;;;;;25.38;36.74;100086.55;103373;1329;67764;-86
2022/06/08 13:20:54;;;;;;;31.50;23.70;;;;;;;25.37;36.75;100077.55;103522;1319;82634;-85
2022/06/08 13:23:21;;;;;;;38.60;31.10;;;;;;;25.36;37.08;100075.89;103526;1328;67771;-86
2022/06/08 13:25:47;;;;;;;22.00;16.50;;;;;;;25.38;37.23;100068.83;103336;1329;67868;-85
2022/06/08 13:28:15;;;;;;;15.40;11.40;;;;;;;25.40;37.35;100069.05;103493;1328;67923;-86
2022/06/08 13:30:40;;;;;;;11.40;5.80;;;;;;;25.41;37.34;100064.89;103497;1329;67660;-86
2022/06/08 13:33:56;;;;;;;8.00;4.00;;;;;;;25.40;37.57;100069.83;103609;1328;67698;-85
2022/06/08 13:35:56;;;;;;;;;;;;;;;25.41;37.74;100078.56;103475;1328;72847;-86
2022/06/08 13:38:23;;;;;;;7.00;2.90;;;;;;;25.36;37.81;100080.48;103557;1329;67670;-86
2022/06/08 13:40:48;;;;;;;5.00;3.10;;;;;;;25.34;37.74;100087.27;103479;1330;68054;-86
2022/06/08 13:43:14;;;;;;;4.00;3.10;;;;;;;25.35;37.77;100084.86;103576;1330;68171;-86
2022/06/08 13:45:41;;;;;;;6.80;3.10;;;;;;;25.34;37.77;100082.63;103538;1329;67524;-86
2022/06/08 13:48:12;;;;;;;4.50;3.00;;;;;;;25.33;37.60;100083.52;103499;1329;67773;-86
2022/06/08 13:50:39;;;;;;;;;;;;;;;25.33;37.53;100077.44;103577;1329;67029;-86
2022/06/08 13:53:06;;;;;;;4.70;2.40;;;;;;;25.33;37.47;100077.82;103546;1330;67860;-86
2022/06/08 13:55:36;;;;;;;5.10;2.60;;;;;;;25.33;37.34;100072.14;103402;1331;67362;-86
2022/06/08 13:58:03;;;;;;;3.70;2.20;;;;;;;25.34;37.30;100076.96;103492;1330;75477;-86
2022/06/08 14:00:29;;;;;;;2.50;2.20;;;;;;;25.34;37.44;100076.26;103584;1329;67644;-87
2022/06/08 14:02:59;;;;;;;5.90;2.40;;;;;;;25.34;37.39;100074.32;103514;1329;67071;-86
2022/06/08 14:13:42;;;;;;;12.30;6.30;;;;;;;25.28;37.47;100066.71;103559;1329;71741;-86
2022/06/08 14:16:08;;;;;;;7.40;6.00;;;;;;;25.22;37.43;100065.46;103467;1330;67449;-86
2022/06/08 14:18:42;;;;;;;7.20;3.90;;;;;;;25.22;37.43;100072.36;103582;1330;67639;-86
2022/06/08 14:23:47;;;;;;;9.50;3.20;;;;;;;25.22;37.43;100055.23;103570;1316;188791;-85
2022/06/08 14:26:17;;;;;;;4.90;3.20;;;;;;;25.24;37.50;100060.42;103631;1328;74488;-85
2022/06/08 14:28:46;;;;;;;6.30;3.20;;;;;;;25.27;37.43;100055.94;103690;1328;67018;-87
2022/06/08 14:31:41;;;;;;;7.00;3.00;;;;;;;25.28;37.47;100052.50;103664;1327;67253;-87
2022/06/08 14:34:25;;;;;;;5.60;2.90;;;;;;;25.31;37.46;100053.60;103641;1327;67608;-87
2022/06/08 14:36:51;;;;;;;5.50;2.50;;;;;;;25.33;37.55;100054.33;103593;1328;75574;-87
2022/06/08 14:39:19;;;;;;;5.20;2.30;;;;;;;25.31;37.49;100049.06;103694;1328;67642;-90
2022/06/08 14:41:46;;;;;;;6.60;2.90;;;;;;;25.37;37.66;100049.09;103517;1328;66955;-87
2022/06/08 14:44:12;;;;;;;11.80;2.70;;;;;;;25.39;37.46;100051.96;103688;1328;67431;-87
2022/06/08 14:46:42;;;;;;;4.20;2.70;;;;;;;25.40;37.55;100050.92;103644;1328;67644;-87
2022/06/08 14:49:12;;;;;;;6.40;2.90;;;;;;;25.39;37.53;100047.39;103685;1328;73841;-86
2022/06/08 14:51:37;;;;;;;4.20;2.30;;;;;;;25.38;37.59;100046.75;103695;1328;71771;-87
2022/06/08 14:56:40;;;;;;;5.70;2.30;;;;;;;25.41;37.38;100036.27;103662;1315;67608;-87